createdAt,value
2019-03-26T00:02:30.761Z,59.15
2019-03-26T00:05:02.788Z,63.40
2019-03-26T00:07:35.995Z,58.02
2019-03-26T00:10:08.197Z,59.33
2019-03-26T00:12:40.581Z,68.35
2019-03-26T00:15:12.471Z,63.90
2019-03-26T00:17:44.638Z,61.90
2019-03-26T00:20:16.574Z,64.65
2019-03-26T00:22:48.480Z,66.40
2019-03-26T00:25:20.318Z,70.10
2019-03-26T00:27:52.384Z,58.33
2019-03-26T00:30:24.287Z,59.27
2019-03-26T00:32:56.188Z,54.95
2019-03-26T00:35:28.076Z,54.65
2019-03-26T00:38:00.309Z,53.90
2019-03-26T00:40:32.333Z,75.45
2019-03-26T00:43:04.322Z,73.30
2019-03-26T00:45:36.205Z,99.37
2019-03-26T00:48:07.937Z,97.65
2019-03-26T00:50:39.744Z,98.62
2019-03-26T00:53:11.677Z,86.67
2019-03-26T00:55:43.552Z,76.22
2019-03-26T00:58:15.648Z,69.20
2019-03-26T01:00:47.916Z,66.28
2019-03-26T01:03:21.150Z,60.55
2019-03-26T01:05:53.273Z,87.20
2019-03-26T01:08:25.297Z,87.25
2019-03-26T01:10:57.215Z,93.42
2019-03-26T01:13:29.495Z,105.90
2019-03-26T01:16:01.245Z,112.77
2019-03-26T01:18:34.134Z,114.52
2019-03-26T01:21:06.159Z,108.20
2019-03-26T01:23:38.237Z,112.37
2019-03-26T01:26:10.111Z,101.40
2019-03-26T01:28:41.991Z,99.70
2019-03-26T01:31:13.934Z,97.08
2019-03-26T01:33:46.932Z,103.40
2019-03-26T01:36:37.399Z,102.80
2019-03-26T01:39:11.340Z,92.42
2019-03-26T01:41:43.338Z,88.92
2019-03-26T01:44:15.698Z,93.25
2019-03-26T01:46:47.608Z,83.30
2019-03-26T01:49:20.644Z,78.72
2019-03-26T01:51:52.297Z,77.72
2019-03-26T01:54:24.282Z,74.17
2019-03-26T01:56:56.053Z,79.03
2019-03-26T01:59:28.070Z,75.28
2019-03-26T02:02:00.217Z,72.75
2019-03-26T02:04:32.278Z,72.30
2019-03-26T02:07:04.333Z,76.37
2019-03-26T02:09:37.061Z,81.55
2019-03-26T02:12:09.148Z,71.20
2019-03-26T02:14:41.967Z,75.70
2019-03-26T02:17:13.965Z,82.67
2019-03-26T02:19:47.089Z,75.03
2019-03-26T02:22:19.157Z,81.30
2019-03-26T02:24:51.360Z,89.42
2019-03-26T02:27:23.313Z,89.67
2019-03-26T02:29:55.318Z,94.30
2019-03-26T02:32:27.355Z,91.97
2019-03-26T02:35:16.341Z,92.02
2019-03-26T02:37:32.688Z,91.15
2019-03-26T02:40:04.737Z,88.90
2019-03-26T02:42:36.659Z,90.85
2019-03-26T02:45:10.787Z,90.20
2019-03-26T02:47:42.744Z,86.97
2019-03-26T02:50:14.901Z,73.17
2019-03-26T02:52:46.788Z,75.45
2019-03-26T02:55:20.104Z,70.37
2019-03-26T02:57:52.174Z,70.60
2019-03-26T03:00:24.197Z,69.80
2019-03-26T03:02:56.052Z,75.72
2019-03-26T03:05:35.880Z,74.92
2019-03-26T03:08:20.446Z,80.72
2019-03-26T03:10:52.368Z,79.22
2019-03-26T03:13:24.408Z,100.47
2019-03-26T03:15:56.612Z,101.33
2019-03-26T03:18:28.515Z,103.00
2019-03-26T03:21:00.465Z,98.70
2019-03-26T03:23:32.292Z,100.90
2019-03-26T03:26:05.133Z,81.17
2019-03-26T03:28:37.034Z,95.75
2019-03-26T03:31:10.446Z,86.92
2019-03-26T03:33:42.531Z,74.10
2019-03-26T03:36:14.556Z,92.85
2019-03-26T03:38:46.346Z,126.42
2019-03-26T03:41:18.353Z,119.60
2019-03-26T03:43:50.420Z,126.90
2019-03-26T03:46:23.808Z,109.87
2019-03-26T03:48:55.951Z,112.42
2019-03-26T03:51:30.770Z,127.95
2019-03-26T03:54:02.897Z,127.72
2019-03-26T03:56:38.325Z,124.75
2019-03-26T03:59:12.801Z,142.62
2019-03-26T04:01:44.991Z,139.65
2019-03-26T04:04:16.914Z,219.03
2019-03-26T04:06:49.157Z,160.03
2019-03-26T04:09:21.142Z,156.63
2019-03-26T04:11:54.145Z,112.88
2019-03-26T04:14:25.842Z,108.83
2019-03-26T04:16:57.906Z,233.93
2019-03-26T04:19:29.906Z,140.68
2019-03-26T04:22:01.842Z,119.77
2019-03-26T04:24:33.784Z,102.97
2019-03-26T04:27:07.010Z,102.97
2019-03-26T04:29:38.946Z,110.90
2019-03-26T04:32:10.888Z,117.37
2019-03-26T04:34:42.849Z,109.72
2019-03-26T04:37:15.723Z,115.17
2019-03-26T04:39:47.622Z,118.50
2019-03-26T04:42:19.505Z,140.00
2019-03-26T04:44:51.331Z,147.90
2019-03-26T04:47:23.462Z,286.55
2019-03-26T04:50:14.038Z,203.62
2019-03-26T04:52:46.086Z,132.82
2019-03-26T04:55:18.049Z,115.90
2019-03-26T04:57:49.944Z,102.87
2019-03-26T05:00:22.976Z,97.72
2019-03-26T05:02:55.317Z,82.30
2019-03-26T05:05:27.348Z,83.27
2019-03-26T05:07:59.285Z,69.00
2019-03-26T05:10:31.108Z,74.82
2019-03-26T05:13:04.039Z,79.20
2019-03-26T05:15:36.057Z,82.87
2019-03-26T05:18:08.013Z,170.73
2019-03-26T05:20:39.792Z,232.43
2019-03-26T05:23:11.717Z,150.40
2019-03-26T05:25:43.680Z,150.10
2019-03-26T05:28:16.428Z,134.57
2019-03-26T05:30:48.517Z,107.37
2019-03-26T05:33:20.577Z,107.97
2019-03-26T05:35:52.751Z,89.87
2019-03-26T05:38:24.926Z,86.67
2019-03-26T05:40:56.716Z,85.70
2019-03-26T05:43:28.997Z,98.73
2019-03-26T05:46:00.928Z,91.17
2019-03-26T05:48:32.977Z,98.67
2019-03-26T05:51:04.871Z,87.67
2019-03-26T05:53:36.958Z,54.90
2019-03-26T05:56:08.896Z,53.27
2019-03-26T05:58:40.961Z,55.67
2019-03-26T06:01:13.081Z,54.07
2019-03-26T06:03:45.210Z,61.90
2019-03-26T06:06:17.284Z,36.60
2019-03-26T06:08:49.255Z,53.47
2019-03-26T06:11:21.080Z,41.87
2019-03-26T06:13:53.197Z,33.30
2019-03-26T06:16:37.645Z,46.60
2019-03-26T06:18:59.233Z,42.40
2019-03-26T06:21:31.318Z,27.10
2019-03-26T06:24:03.556Z,29.40
2019-03-26T06:26:35.439Z,36.40
2019-03-26T06:29:08.369Z,30.87
2019-03-26T06:31:40.356Z,27.53
2019-03-26T06:34:12.595Z,41.77
2019-03-26T06:36:44.625Z,30.27
2019-03-26T06:39:16.937Z,29.67
2019-03-26T06:41:48.945Z,33.27
2019-03-26T06:44:20.945Z,50.20
2019-03-26T06:46:52.909Z,32.40
2019-03-26T06:49:24.782Z,26.93
2019-03-26T06:51:57.958Z,29.37
2019-03-26T06:54:29.978Z,30.87
2019-03-26T06:57:01.872Z,32.40
2019-03-26T06:59:34.003Z,35.40
2019-03-26T07:02:06.205Z,35.37
2019-03-26T07:04:46.846Z,35.23
2019-03-26T07:07:30.959Z,34.87
2019-03-26T07:09:52.645Z,38.13
2019-03-26T07:12:24.483Z,27.07
2019-03-26T07:14:56.569Z,29.37
2019-03-26T07:17:47.095Z,28.87
2019-03-26T07:20:19.178Z,32.53
2019-03-26T07:22:51.277Z,28.13
2019-03-26T07:25:23.342Z,47.07
2019-03-26T07:27:55.496Z,53.00
2019-03-26T07:30:44.281Z,43.37
2019-03-26T07:33:16.361Z,24.90
2019-03-26T07:35:48.881Z,28.83
2019-03-26T07:38:20.854Z,34.40
2019-03-26T07:40:53.544Z,34.53
2019-03-26T07:43:25.317Z,38.30
2019-03-26T07:45:57.389Z,19.53
2019-03-26T07:48:29.190Z,22.17
2019-03-26T07:51:01.442Z,24.17
2019-03-26T07:53:33.411Z,34.70
2019-03-26T07:56:05.406Z,19.37
2019-03-26T07:58:39.550Z,19.40
2019-03-26T08:01:12.180Z,27.67
2019-03-26T08:03:43.988Z,64.97
2019-03-26T08:06:16.741Z,26.27
2019-03-26T08:08:48.844Z,19.43
2019-03-26T08:11:20.941Z,19.43
2019-03-26T08:13:52.843Z,16.00
2019-03-26T08:16:25.107Z,16.67
2019-03-26T08:18:57.176Z,17.00
2019-03-26T08:21:29.482Z,19.13
2019-03-26T08:24:01.379Z,53.73
2019-03-26T08:26:34.325Z,26.53
2019-03-26T08:29:06.444Z,30.50
2019-03-26T08:31:38.407Z,25.37
2019-03-26T08:34:29.019Z,21.47
2019-03-26T08:37:01.160Z,29.27
2019-03-26T08:39:33.994Z,41.83
2019-03-26T08:42:06.765Z,36.53
2019-03-26T08:44:38.737Z,34.00
2019-03-26T08:47:10.701Z,21.77
2019-03-26T08:49:43.696Z,40.27
2019-03-26T08:52:16.104Z,24.70
2019-03-26T08:54:50.776Z,27.13
2019-03-26T08:57:23.180Z,27.53
2019-03-26T08:59:55.281Z,29.07
2019-03-26T09:02:27.273Z,33.23
2019-03-26T09:04:59.158Z,26.00
2019-03-26T09:07:31.873Z,32.13
2019-03-26T09:10:03.909Z,41.70
2019-03-26T09:12:39.251Z,32.47
2019-03-26T09:15:14.272Z,30.80
2019-03-26T09:17:45.051Z,34.47
2019-03-26T09:20:17.088Z,32.73
2019-03-26T09:22:49.469Z,31.40
2019-03-26T09:25:21.343Z,38.90
2019-03-26T09:27:53.465Z,36.40
2019-03-26T09:30:25.458Z,36.93
2019-03-26T09:32:57.401Z,40.57
2019-03-26T09:35:29.521Z,36.70
2019-03-26T09:38:01.506Z,29.23
2019-03-26T09:40:33.412Z,34.63
2019-03-26T09:43:05.708Z,35.63
2019-03-26T09:45:37.542Z,31.80
2019-03-26T09:48:09.693Z,131.73
2019-03-26T09:50:41.715Z,13.90
2019-03-26T09:53:13.888Z,15.17
2019-03-26T09:55:46.016Z,13.07
2019-03-26T09:58:18.190Z,15.87
2019-03-26T10:00:50.356Z,20.63
2019-03-26T10:03:22.572Z,16.33
2019-03-26T10:05:54.529Z,14.80
2019-03-26T10:08:26.609Z,15.90
2019-03-26T10:10:58.518Z,16.93
2019-03-26T10:13:30.564Z,16.90
2019-03-26T10:16:02.477Z,15.10
2019-03-26T10:18:45.293Z,19.43
2019-03-26T10:21:17.532Z,14.50
2019-03-26T10:23:50.617Z,13.50
2019-03-26T10:26:22.479Z,19.67
2019-03-26T10:28:54.394Z,21.07
2019-03-26T10:31:26.269Z,17.07
2019-03-26T10:33:58.473Z,19.27
2019-03-26T10:36:30.592Z,23.17
2019-03-26T10:39:05.388Z,22.60
2019-03-26T10:41:36.398Z,23.33
2019-03-26T10:44:08.332Z,24.00
2019-03-26T10:46:44.393Z,23.03
2019-03-26T10:49:15.788Z,27.03
2019-03-26T10:51:47.802Z,25.83
2019-03-26T10:54:19.985Z,21.80
2019-03-26T10:56:52.025Z,31.70
2019-03-26T10:59:24.042Z,31.10
2019-03-26T11:01:59.778Z,23.70
2019-03-26T11:04:30.544Z,24.90
2019-03-26T11:07:02.513Z,27.13
2019-03-26T11:09:34.614Z,27.13
2019-03-26T11:12:06.625Z,31.27
2019-03-26T11:14:38.829Z,25.17
2019-03-26T11:17:11.109Z,28.47
2019-03-26T11:19:46.174Z,29.93
2019-03-26T11:22:16.641Z,31.47
2019-03-26T11:24:48.841Z,39.77
2019-03-26T11:27:20.929Z,38.20
2019-03-26T11:29:53.001Z,48.43
2019-03-26T11:32:25.076Z,39.23
2019-03-26T11:35:08.333Z,34.00
2019-03-26T11:37:40.630Z,31.73
2019-03-26T11:40:13.958Z,29.10
2019-03-26T11:42:46.698Z,34.37
2019-03-26T11:45:20.043Z,34.53
2019-03-26T11:47:51.947Z,28.47
2019-03-26T11:50:24.035Z,28.17
2019-03-26T11:52:57.197Z,29.43
2019-03-26T11:55:29.362Z,27.47
2019-03-26T11:58:01.642Z,24.73
2019-03-26T12:00:36.179Z,26.67
2019-03-26T12:03:08.438Z,24.77
2019-03-26T12:05:40.529Z,26.20
2019-03-26T12:08:12.323Z,31.03
2019-03-26T12:10:44.357Z,25.83
2019-03-26T12:13:16.272Z,20.83
2019-03-26T12:15:48.140Z,26.63
2019-03-26T12:18:20.159Z,21.93
2019-03-26T12:20:52.071Z,24.93
2019-03-26T12:23:23.871Z,20.80
2019-03-26T12:25:55.971Z,22.43
2019-03-26T12:28:28.050Z,20.67
2019-03-26T12:31:00.163Z,20.27
2019-03-26T12:33:32.212Z,25.17
2019-03-26T12:36:04.298Z,32.43
2019-03-26T12:38:36.056Z,22.77
2019-03-26T12:41:08.222Z,21.83
2019-03-26T12:43:40.498Z,23.47
2019-03-26T12:46:12.680Z,22.90
2019-03-26T12:48:44.759Z,20.97
2019-03-26T12:51:17.503Z,24.93
2019-03-26T12:53:49.621Z,20.97
2019-03-26T12:56:21.797Z,21.57
2019-03-26T12:58:53.880Z,25.43
2019-03-26T13:01:25.832Z,21.37
2019-03-26T13:04:11.666Z,20.40
2019-03-26T13:06:31.469Z,22.17
2019-03-26T13:09:05.194Z,24.67
2019-03-26T13:11:37.429Z,26.77
2019-03-26T13:14:09.415Z,22.60
2019-03-26T13:17:10.188Z,20.97
2019-03-26T13:19:42.158Z,26.20
2019-03-26T13:22:13.879Z,24.20
2019-03-26T13:24:45.850Z,22.33
2019-03-26T13:27:17.926Z,19.57
2019-03-26T13:29:50.882Z,19.77
2019-03-26T13:32:22.764Z,23.00
2019-03-26T13:34:54.725Z,19.47
2019-03-26T13:37:26.656Z,22.23
2019-03-26T13:39:58.553Z,20.47
2019-03-26T13:42:30.701Z,21.80
2019-03-26T13:45:02.789Z,22.23
2019-03-26T13:47:34.947Z,23.20
2019-03-26T13:50:07.182Z,25.50
2019-03-26T13:52:39.275Z,18.20
2019-03-26T13:55:12.420Z,33.77
2019-03-26T13:57:44.355Z,40.43
2019-03-26T14:00:17.858Z,29.27
2019-03-26T14:02:49.639Z,31.57
2019-03-26T14:05:27.913Z,21.17
2019-03-26T14:07:59.968Z,19.83
2019-03-26T14:10:40.698Z,18.40
2019-03-26T14:13:05.804Z,22.70
2019-03-26T14:15:37.870Z,25.07
2019-03-26T14:18:10.042Z,23.63
2019-03-26T14:20:42.172Z,23.77
2019-03-26T14:23:21.589Z,20.70
2019-03-26T14:25:55.782Z,34.43
2019-03-26T14:28:30.848Z,50.93
2019-03-26T14:31:04.594Z,25.57
2019-03-26T14:33:40.129Z,16.37
2019-03-26T14:36:13.486Z,25.93
2019-03-26T14:38:47.047Z,27.60
2019-03-26T14:41:20.076Z,24.43
2019-03-26T14:43:51.750Z,18.97
2019-03-26T14:46:24.099Z,23.47
2019-03-26T14:48:56.145Z,17.60
2019-03-26T14:51:28.186Z,20.87
2019-03-26T14:53:59.989Z,20.93
2019-03-26T14:56:32.316Z,31.90
2019-03-26T14:59:04.281Z,32.20
2019-03-26T15:01:36.165Z,28.03
2019-03-26T15:04:08.137Z,39.23
2019-03-26T15:06:40.327Z,34.00
2019-03-26T15:09:12.597Z,31.93
2019-03-26T15:11:45.109Z,36.80
2019-03-26T15:14:16.962Z,44.03
2019-03-26T15:16:48.882Z,50.93
2019-03-26T15:19:21.021Z,50.70
2019-03-26T15:21:53.766Z,48.77
2019-03-26T15:24:27.928Z,49.27
2019-03-26T15:27:01.235Z,40.87
2019-03-26T15:29:42.104Z,47.40
2019-03-26T15:32:19.153Z,82.03
2019-03-26T15:34:51.592Z,60.53
2019-03-26T15:37:23.801Z,81.80
2019-03-26T15:39:55.860Z,84.63
2019-03-26T15:42:28.068Z,58.07
2019-03-26T15:45:00.392Z,61.07
2019-03-26T15:47:32.399Z,48.67
2019-03-26T15:50:04.459Z,67.87
2019-03-26T15:52:36.528Z,75.03
2019-03-26T15:55:08.516Z,81.20
2019-03-26T15:57:40.525Z,92.27
2019-03-26T16:00:12.502Z,75.67
2019-03-26T16:02:45.003Z,69.00
2019-03-26T16:05:16.933Z,79.27
2019-03-26T16:07:49.056Z,85.30
2019-03-26T16:10:21.969Z,92.37
2019-03-26T16:12:56.693Z,91.83
2019-03-26T16:15:43.014Z,86.03
2019-03-26T16:18:03.754Z,61.70
2019-03-26T16:20:36.442Z,76.80
2019-03-26T16:23:09.380Z,74.87
2019-03-26T16:25:42.099Z,89.23
2019-03-26T16:28:15.107Z,87.83
2019-03-26T16:30:47.245Z,83.80
2019-03-26T16:33:19.307Z,77.37
2019-03-26T20:03:54.176Z,35.83
2019-03-26T20:06:30.892Z,34.83
2019-03-26T20:09:07.365Z,33.33
2019-03-26T20:11:42.765Z,37.07
2019-03-26T20:14:17.307Z,34.77
2019-03-26T20:16:52.232Z,33.37
2019-03-26T20:19:27.088Z,32.97
2019-03-26T20:22:01.068Z,32.80
2019-03-26T20:24:35.193Z,31.57
2019-03-26T20:27:10.418Z,33.63
2019-03-26T20:29:45.185Z,31.30
2019-03-26T20:32:19.656Z,30.27
2019-03-26T20:34:54.795Z,26.87
2019-03-26T20:37:28.848Z,28.37
2019-03-26T20:40:03.529Z,24.97
2019-03-26T20:42:37.251Z,36.50
2019-03-26T20:45:14.492Z,26.90
2019-03-26T20:47:49.123Z,28.23
2019-03-26T20:50:25.128Z,34.23
2019-03-26T20:52:59.317Z,28.87
2019-03-26T20:55:34.684Z,28.03
2019-03-26T20:58:08.488Z,25.60
2019-03-26T21:00:42.756Z,29.67
2019-03-26T21:03:16.560Z,27.93
2019-03-26T21:05:51.302Z,29.83
2019-03-26T21:08:25.297Z,29.33
2019-03-26T21:11:00.214Z,29.17
2019-03-26T21:13:36.020Z,28.90
2019-03-26T21:16:09.608Z,26.00
2019-03-26T21:18:42.166Z,29.13
2019-03-26T21:21:18.453Z,37.70
2019-03-26T21:23:51.040Z,31.47
2019-03-26T21:26:25.196Z,26.27
2019-03-26T21:29:00.514Z,37.47
2019-03-26T21:31:36.491Z,30.17
2019-03-26T21:34:12.574Z,38.33
2019-03-26T21:36:46.847Z,29.43
2019-03-26T21:39:21.143Z,28.57
2019-03-26T21:41:55.240Z,30.27
2019-03-26T21:44:28.466Z,27.98
2019-03-26T21:47:02.748Z,31.07
2019-03-26T21:49:37.251Z,37.10
2019-03-26T21:52:28.275Z,28.38
2019-03-26T21:55:02.607Z,26.67
2019-03-26T21:57:35.045Z,27.80
2019-03-26T22:00:12.359Z,33.67
2019-03-26T22:02:48.135Z,33.08
2019-03-26T22:05:22.205Z,30.25
2019-03-26T22:07:55.444Z,29.20
2019-03-26T22:10:29.219Z,29.07
2019-03-26T22:13:20.690Z,28.60
2019-03-26T22:15:54.960Z,29.40
2019-03-26T22:18:29.668Z,27.10
2019-03-26T22:21:05.093Z,31.12
2019-03-26T22:23:39.914Z,41.77
2019-03-26T22:26:13.504Z,33.95
2019-03-26T22:28:46.896Z,35.77
2019-03-26T22:31:19.367Z,30.43
2019-03-26T22:33:52.343Z,30.93
2019-03-26T22:36:25.636Z,27.42
2019-03-26T22:38:59.217Z,31.12
2019-03-26T22:41:33.392Z,32.85
2019-03-26T22:44:07.290Z,35.05
2019-03-26T22:46:43.497Z,36.65
2019-03-26T22:49:18.183Z,36.45
2019-03-26T22:51:51.185Z,39.87
2019-03-26T22:54:26.411Z,46.85
2019-03-26T22:56:59.781Z,44.73
2019-03-26T22:59:35.016Z,48.50
2019-03-26T23:02:09.955Z,42.65
2019-03-26T23:04:44.183Z,41.28
2019-03-26T23:07:18.747Z,37.60
2019-03-26T23:09:53.414Z,38.02
2019-03-26T23:12:27.572Z,41.20
2019-03-26T23:15:01.761Z,34.73
2019-03-26T23:17:36.768Z,40.38
2019-03-26T23:20:10.596Z,38.63
2019-03-26T23:22:44.581Z,38.00
2019-03-26T23:25:17.890Z,41.80
2019-03-26T23:27:52.558Z,37.90
2019-03-26T23:30:26.231Z,47.95
2019-03-26T23:33:00.714Z,38.80
2019-03-26T23:35:51.660Z,36.73
2019-03-26T23:38:26.313Z,35.23
2019-03-26T23:41:00.392Z,40.03
2019-03-26T23:43:33.334Z,41.05
2019-03-26T23:46:06.368Z,44.27
2019-03-26T23:48:38.470Z,42.78
2019-03-26T23:51:11.649Z,44.95
2019-03-26T23:53:45.828Z,48.92
2019-03-26T23:56:19.743Z,47.75
2019-03-26T23:58:53.068Z,42.73
